createdAt,value
2022-11-06T08:02:03.869Z,37.83
2022-11-06T08:04:52.041Z,35.33
2022-11-06T08:07:41.332Z,33.93
2022-11-06T08:10:28.955Z,38.50
2022-11-06T08:13:18.505Z,33.73
2022-11-06T08:16:07.003Z,34.97
2022-11-06T08:18:54.640Z,38.20
2022-11-06T08:21:42.245Z,42.97
2022-11-06T08:24:31.373Z,33.80
2022-11-06T08:27:19.361Z,44.87
2022-11-06T08:30:08.403Z,40.77
2022-11-06T08:32:57.121Z,39.33
2022-11-06T08:35:44.797Z,38.67
2022-11-06T08:38:32.511Z,46.40
2022-11-06T08:41:21.853Z,38.00
2022-11-06T08:44:09.840Z,39.60
2022-11-06T08:46:57.735Z,34.07
2022-11-06T08:49:45.647Z,42.17
2022-11-06T08:52:34.372Z,35.53
2022-11-06T08:55:21.975Z,36.33
2022-11-06T08:58:10.867Z,38.43
2022-11-06T09:00:58.449Z,36.83
2022-11-06T09:03:46.040Z,39.87
2022-11-06T09:06:33.941Z,34.93
2022-11-06T09:09:22.112Z,42.20
2022-11-06T09:12:10.079Z,33.87
2022-11-06T09:14:58.989Z,40.23
2022-11-06T09:17:47.817Z,33.40
2022-11-06T09:20:35.903Z,37.90
2022-11-06T09:23:23.694Z,36.23
2022-11-06T09:26:11.324Z,33.97
2022-11-06T09:28:59.190Z,30.13
2022-11-06T09:31:48.378Z,26.17
2022-11-06T09:34:36.268Z,22.27
2022-11-06T09:37:23.775Z,24.87
2022-11-06T09:40:21.325Z,22.88
2022-11-06T09:43:50.326Z,20.52
2022-11-06T09:46:34.452Z,15.70
2022-11-06T09:49:27.748Z,19.38
2022-11-06T09:52:23.895Z,15.30
2022-11-06T09:55:17.280Z,17.17
2022-11-06T09:58:11.434Z,21.25
2022-11-06T10:01:03.714Z,20.13
2022-11-06T10:03:56.128Z,17.90
2022-11-06T10:06:45.031Z,14.43
2022-11-06T10:09:32.868Z,16.92
2022-11-06T10:12:28.035Z,17.33
2022-11-06T10:15:23.797Z,19.05
2022-11-06T10:18:22.278Z,14.50
2022-11-06T10:21:13.053Z,17.15
2022-11-06T10:24:12.891Z,14.32
2022-11-06T10:27:00.635Z,18.52
2022-11-06T10:30:07.683Z,13.75
2022-11-06T10:33:16.750Z,15.88
2022-11-06T10:36:11.077Z,14.85
2022-11-06T10:39:04.704Z,14.60
2022-11-06T10:41:59.618Z,11.65
2022-11-06T10:44:51.007Z,10.35
2022-11-06T10:47:42.232Z,9.90
2022-11-06T10:50:38.441Z,10.13
2022-11-06T10:53:33.586Z,10.60
2022-11-06T10:56:40.009Z,8.98
2022-11-06T10:59:28.498Z,11.00
2022-11-06T11:02:26.045Z,9.77
2022-11-06T11:05:15.653Z,8.18
2022-11-06T11:08:03.627Z,7.20
2022-11-06T11:11:04.479Z,5.63
2022-11-06T11:14:16.018Z,9.50
2022-11-06T11:17:09.343Z,6.57
2022-11-06T11:19:57.135Z,7.20
2022-11-06T11:22:44.728Z,4.05
2022-11-06T11:25:32.313Z,4.70
2022-11-06T11:28:32.119Z,5.15
2022-11-06T11:31:21.879Z,3.70
2022-11-06T11:34:18.456Z,6.15
2022-11-06T11:37:08.356Z,4.88
2022-11-06T11:39:57.653Z,5.68
2022-11-06T11:42:45.309Z,6.00
2022-11-06T11:45:32.675Z,5.25
2022-11-06T11:48:21.530Z,6.70
2022-11-06T11:51:20.489Z,5.07
2022-11-06T11:54:19.822Z,7.43
2022-11-06T11:57:09.848Z,6.55
2022-11-06T12:00:02.948Z,7.00
2022-11-06T12:02:54.642Z,6.32
2022-11-06T12:05:43.968Z,4.75
2022-11-06T12:08:31.976Z,5.85
2022-11-06T12:11:23.699Z,5.45
2022-11-06T12:14:32.557Z,3.70
2022-11-06T12:17:23.541Z,3.05
2022-11-06T12:20:15.257Z,4.40
2022-11-06T12:23:07.641Z,4.32
2022-11-06T12:26:02.811Z,6.20
2022-11-06T12:28:53.766Z,5.32
2022-11-06T12:31:44.243Z,5.65
2022-11-06T12:34:36.256Z,4.80
2022-11-06T12:37:36.534Z,8.95
2022-11-06T12:40:30.349Z,3.60
2022-11-06T12:43:24.609Z,4.75
2022-11-06T12:46:22.018Z,6.47
2022-11-06T12:49:29.474Z,5.68
2022-11-06T12:52:33.930Z,4.55
2022-11-06T12:55:29.058Z,4.63
2022-11-06T12:58:39.733Z,6.47
2022-11-06T13:01:41.752Z,6.28
2022-11-06T13:04:41.152Z,5.60
2022-11-06T13:07:48.282Z,3.65
2022-11-06T13:10:47.692Z,5.07
2022-11-06T13:13:50.834Z,6.93
2022-11-06T13:16:45.577Z,4.00
2022-11-06T13:19:38.990Z,4.25
2022-11-06T13:22:31.457Z,6.28
2022-11-06T13:25:24.323Z,3.55
2022-11-06T13:28:27.316Z,7.50
2022-11-06T13:31:18.856Z,6.22
2022-11-06T13:34:08.075Z,5.07
2022-11-06T13:36:56.985Z,5.18
2022-11-06T13:39:49.450Z,8.25
2022-11-06T13:42:42.755Z,7.13
2022-11-06T13:45:36.238Z,6.80
2022-11-06T13:48:38.154Z,6.05
2022-11-06T13:51:38.255Z,3.80
2022-11-06T13:54:40.953Z,7.80
2022-11-06T13:57:49.276Z,6.72
2022-11-06T14:00:48.925Z,5.45
2022-11-06T14:04:00.483Z,6.03
2022-11-06T14:06:52.732Z,5.47
2022-11-06T14:09:45.105Z,3.22
2022-11-06T14:12:32.902Z,5.70
2022-11-06T14:15:31.798Z,4.35
2022-11-06T14:18:24.884Z,3.10
2022-11-06T14:21:46.711Z,3.45
2022-11-06T14:24:35.706Z,7.43
2022-11-06T14:28:05.963Z,2.60
2022-11-06T14:34:05.517Z,4.50
2022-11-06T14:36:53.362Z,4.88
2022-11-06T14:40:06.367Z,6.38
2022-11-06T14:42:54.190Z,4.70
2022-11-06T14:45:52.092Z,3.00
2022-11-06T14:48:44.092Z,5.88
2022-11-06T14:51:33.219Z,5.80
2022-11-06T14:54:24.496Z,7.18
2022-11-06T14:57:18.203Z,5.10
2022-11-06T15:00:06.669Z,7.00
2022-11-06T15:02:56.666Z,5.20
2022-11-06T15:05:48.252Z,4.13
2022-11-06T15:09:00.945Z,6.38
2022-11-06T15:11:53.916Z,4.50
2022-11-06T15:15:07.655Z,6.28
2022-11-06T15:17:55.459Z,4.10
2022-11-06T15:20:46.994Z,5.18
2022-11-06T15:23:44.160Z,7.28
2022-11-06T15:26:41.463Z,8.88
2022-11-06T15:29:33.171Z,10.43
2022-11-06T15:32:24.178Z,13.43
2022-11-06T15:35:16.485Z,17.63
2022-11-06T15:38:11.699Z,21.53
2022-11-06T15:40:59.739Z,18.17
2022-11-06T15:43:50.746Z,22.90
2022-11-06T15:46:38.329Z,19.45
2022-11-06T15:49:27.224Z,17.77
2022-11-06T15:52:19.194Z,18.10
2022-11-06T15:55:08.002Z,20.48
2022-11-06T15:57:55.795Z,23.83
2022-11-06T16:00:45.867Z,21.10
2022-11-06T16:06:22.893Z,21.70
2022-11-06T16:09:17.791Z,20.73
2022-11-06T16:12:06.016Z,25.33
2022-11-06T16:14:53.759Z,19.00
2022-11-06T16:17:46.193Z,19.43
